Time;durP1;ratioP1;P1;durP2;ratioP2;P2;SDS_P1;SDS_P2;PMS_P1;PMS_P2;Temp;Humidity;BMP_temperature;BMP_pressure;BME280_temperature;BME280_humidity;BME280_pressure;Samples;Min_cycle;Max_cycle;Signal;HPM_P1;HPM_P2
2023/03/06 00:00:44;;;;;;;0.10;0.10;;;5.70;99.90;;;;;;5044731;28;20192;-86
2023/03/06 00:03:16;;;;;;;0.10;0.10;;;5.60;99.90;;;;;;5078757;27;20659;-85
2023/03/06 00:05:41;;;;;;;0.10;0.10;;;5.60;99.90;;;;;;5080744;28;20206;-86
2023/03/06 00:08:07;;;;;;;0.10;0.10;;;5.60;99.90;;;;;;5063809;28;20652;-86
2023/03/06 00:10:33;;;;;;;0.10;0.10;;;5.60;99.90;;;;;;5059404;28;20215;-85
2023/03/06 00:13:02;;;;;;;0.10;0.10;;;5.60;99.90;;;;;;5059465;28;20305;-86
2023/03/06 00:15:28;;;;;;;0.10;0.10;;;5.60;99.90;;;;;;5061385;28;20187;-86
2023/03/06 00:17:54;;;;;;;0.10;0.10;;;5.60;99.90;;;;;;5061696;28;20208;-85
2023/03/06 00:20:21;;;;;;;0.07;0.07;;;5.50;99.90;;;;;;5059800;28;20185;-86
2023/03/06 00:22:46;;;;;;;0.10;0.10;;;5.50;99.90;;;;;;5059810;28;20203;-86
2023/03/06 00:25:15;;;;;;;0.10;0.10;;;5.50;99.90;;;;;;5061105;28;20244;-85
2023/03/06 00:27:41;;;;;;;0.10;0.10;;;5.50;99.90;;;;;;5060294;28;20265;-85
2023/03/06 00:30:09;;;;;;;0.10;0.10;;;5.50;99.90;;;;;;5059675;28;20195;-86
2023/03/06 00:32:35;;;;;;;0.10;0.10;;;5.40;99.90;;;;;;5063421;28;20254;-85
2023/03/06 00:35:00;;;;;;;0.10;0.10;;;5.40;99.90;;;;;;5063876;28;20272;-85
2023/03/06 00:37:26;;;;;;;0.10;0.10;;;5.40;99.90;;;;;;5061943;28;20251;-86
2023/03/06 00:39:51;;;;;;;0.10;0.10;;;5.30;99.90;;;;;;5086149;28;20177;-86
2023/03/06 00:42:18;;;;;;;0.10;0.10;;;5.30;99.90;;;;;;5091031;28;20232;-86
2023/03/06 00:44:44;;;;;;;0.10;0.10;;;5.30;99.90;;;;;;5062657;28;20186;-86
2023/03/06 00:47:10;;;;;;;0.10;0.10;;;5.20;99.90;;;;;;5059162;28;20465;-86
2023/03/06 00:49:35;;;;;;;0.00;0.00;;;5.20;99.90;;;;;;5060249;28;20285;-87
2023/03/06 00:52:01;;;;;;;0.03;0.03;;;5.20;99.90;;;;;;5059117;28;20191;-86
2023/03/06 00:54:26;;;;;;;0.10;0.10;;;5.20;99.90;;;;;;5059426;28;20187;-85
2023/03/06 00:56:52;;;;;;;0.00;0.00;;;5.20;99.90;;;;;;5058005;28;20202;-86
2023/03/06 00:59:18;;;;;;;0.10;0.10;;;5.10;99.90;;;;;;5056425;28;20287;-87
2023/03/06 01:01:43;;;;;;;0.10;0.10;;;5.10;99.90;;;;;;5057201;28;20228;-86
2023/03/06 01:04:09;;;;;;;0.10;0.10;;;5.10;99.90;;;;;;5055812;28;20190;-86
2023/03/06 01:06:35;;;;;;;0.00;0.00;;;5.10;99.90;;;;;;5059781;28;20234;-86
2023/03/06 01:09:01;;;;;;;0.10;0.10;;;5.10;99.90;;;;;;5059600;28;20276;-85
2023/03/06 01:11:26;;;;;;;0.10;0.10;;;5.10;99.90;;;;;;5059619;28;20647;-86
2023/03/06 01:13:52;;;;;;;0.20;0.20;;;5.10;99.90;;;;;;5046487;28;20190;-85
2023/03/06 01:16:18;;;;;;;0.10;0.10;;;5.20;99.90;;;;;;5045608;28;20720;-86
2023/03/06 01:18:45;;;;;;;0.10;0.10;;;5.20;99.90;;;;;;5045113;28;20220;-86
2023/03/06 01:21:11;;;;;;;0.10;0.10;;;5.20;99.90;;;;;;5043834;28;20220;-86
2023/03/06 01:23:37;;;;;;;0.10;0.10;;;5.20;99.90;;;;;;5046211;28;20199;-86
2023/03/06 01:26:03;;;;;;;0.10;0.10;;;5.20;99.90;;;;;;5045573;28;20203;-86
2023/03/06 01:28:28;;;;;;;0.10;0.10;;;5.10;99.90;;;;;;5041041;28;20218;-86
2023/03/06 01:30:54;;;;;;;0.10;0.10;;;5.20;99.90;;;;;;5047738;28;20687;-86
2023/03/06 01:33:20;;;;;;;0.10;0.10;;;5.20;99.90;;;;;;5047293;28;20183;-86
2023/03/06 01:35:45;;;;;;;0.10;0.10;;;5.20;99.90;;;;;;5045352;28;20694;-87
2023/03/06 01:38:11;;;;;;;0.10;0.10;;;5.10;99.90;;;;;;5047085;28;20190;-86
2023/03/06 01:40:37;;;;;;;0.10;0.10;;;5.20;99.90;;;;;;5044756;28;20197;-86
2023/03/06 01:43:29;;;;;;;0.10;0.10;;;5.10;99.90;;;;;;5047213;28;20214;-86
2023/03/06 01:46:30;;;;;;;0.10;0.10;;;5.10;99.90;;;;;;5045808;28;20256;-86
2023/03/06 01:49:01;;;;;;;0.10;0.10;;;5.10;99.90;;;;;;5046257;28;20936;-86
2023/03/06 01:51:36;;;;;;;0.10;0.10;;;5.20;99.90;;;;;;5046031;28;20197;-86
2023/03/06 01:54:07;;;;;;;0.10;0.10;;;5.20;99.90;;;;;;5045303;28;20198;-86
2023/03/06 01:56:33;;;;;;;0.10;0.10;;;5.10;99.90;;;;;;5045397;28;20215;-85
2023/03/06 01:58:59;;;;;;;0.10;0.10;;;5.10;99.90;;;;;;5047171;28;20189;-85
2023/03/06 02:01:25;;;;;;;0.00;0.00;;;5.10;99.90;;;;;;5048044;28;20214;-84
2023/03/06 02:03:51;;;;;;;0.10;0.10;;;5.00;99.90;;;;;;5043725;28;20185;-86
2023/03/06 02:06:20;;;;;;;0.10;0.10;;;5.00;99.90;;;;;;5045584;28;20206;-86
2023/03/06 02:08:48;;;;;;;0.10;0.10;;;4.90;99.90;;;;;;5045445;28;20245;-87
2023/03/06 02:11:17;;;;;;;0.10;0.10;;;5.00;99.90;;;;;;5045770;28;20198;-86
2023/03/06 02:13:44;;;;;;;0.10;0.10;;;5.00;99.90;;;;;;5046250;28;20229;-86
2023/03/06 02:16:10;;;;;;;0.10;0.10;;;5.00;99.90;;;;;;5042912;28;20243;-85
2023/03/06 02:18:37;;;;;;;0.10;0.10;;;5.00;99.90;;;;;;5046380;28;20217;-86
2023/03/06 02:21:06;;;;;;;0.10;0.10;;;5.00;99.90;;;;;;5044292;28;20195;-85
2023/03/06 02:23:41;;;;;;;0.10;0.10;;;4.90;99.90;;;;;;5046470;28;20252;-86
2023/03/06 02:26:09;;;;;;;0.03;0.03;;;5.00;99.90;;;;;;5044804;28;20214;-86
2023/03/06 02:28:34;;;;;;;0.10;0.10;;;5.00;99.90;;;;;;5043322;28;20211;-86
2023/03/06 02:31:00;;;;;;;0.00;0.00;;;5.00;99.90;;;;;;5043120;28;20211;-86
2023/03/06 02:33:27;;;;;;;0.10;0.10;;;5.00;99.90;;;;;;5044927;28;20266;-86
2023/03/06 02:35:56;;;;;;;0.10;0.10;;;5.00;99.90;;;;;;5043554;28;20202;-86
2023/03/06 02:38:26;;;;;;;0.10;0.10;;;5.00;99.90;;;;;;5042532;28;20190;-86
2023/03/06 02:40:53;;;;;;;0.10;0.10;;;4.90;99.90;;;;;;5044129;28;20289;-86
2023/03/06 02:43:26;;;;;;;0.10;0.10;;;5.00;99.90;;;;;;5042267;28;20381;-85
2023/03/06 02:45:52;;;;;;;0.10;0.10;;;4.90;99.90;;;;;;5044149;28;20202;-86
2023/03/06 02:48:18;;;;;;;0.10;0.10;;;5.00;99.90;;;;;;5043872;28;20296;-85
2023/03/06 02:50:45;;;;;;;0.10;0.10;;;5.00;99.90;;;;;;5044214;28;20186;-86
2023/03/06 02:53:13;;;;;;;0.10;0.10;;;5.00;99.90;;;;;;5046777;28;20225;-85
2023/03/06 02:55:39;;;;;;;0.10;0.10;;;4.90;99.90;;;;;;5036898;28;20218;-86
2023/03/06 02:58:05;;;;;;;0.10;0.10;;;4.90;99.90;;;;;;5043709;28;20717;-86
2023/03/06 03:00:31;;;;;;;0.10;0.10;;;4.90;99.90;;;;;;5042333;28;20307;-86
2023/03/06 03:02:57;;;;;;;0.03;0.03;;;4.90;99.90;;;;;;5042823;28;20576;-86
2023/03/06 03:05:23;;;;;;;0.10;0.10;;;4.80;99.90;;;;;;5039808;28;20264;-86
2023/03/06 03:07:49;;;;;;;0.10;0.10;;;4.80;99.90;;;;;;5043903;28;20186;-86
2023/03/06 03:10:15;;;;;;;0.10;0.10;;;4.70;99.90;;;;;;5043537;28;20199;-86
2023/03/06 03:12:41;;;;;;;0.10;0.10;;;4.70;99.90;;;;;;5043696;28;20252;-86
2023/03/06 03:15:08;;;;;;;0.10;0.10;;;4.70;99.90;;;;;;5043623;28;20194;-86
2023/03/06 03:17:38;;;;;;;0.10;0.10;;;4.70;99.90;;;;;;5043364;28;20224;-86
2023/03/06 03:20:06;;;;;;;0.10;0.10;;;4.70;99.90;;;;;;5044289;28;20237;-86
2023/03/06 03:22:32;;;;;;;0.10;0.10;;;4.70;99.90;;;;;;5044471;28;20244;-86
2023/03/06 03:24:57;;;;;;;0.07;0.07;;;4.70;99.90;;;;;;5044333;28;20189;-86
2023/03/06 03:27:23;;;;;;;0.10;0.10;;;4.70;99.90;;;;;;5042603;28;20209;-86
2023/03/06 03:29:48;;;;;;;0.10;0.10;;;4.60;99.90;;;;;;5042003;28;20201;-86
2023/03/06 03:32:14;;;;;;;0.10;0.10;;;4.60;99.90;;;;;;5043165;28;20186;-86
2023/03/06 03:34:39;;;;;;;0.10;0.10;;;4.60;99.90;;;;;;5043578;28;20259;-86
2023/03/06 03:37:05;;;;;;;0.10;0.10;;;4.60;99.90;;;;;;5042843;28;20220;-86
2023/03/06 03:39:31;;;;;;;0.10;0.10;;;4.60;99.90;;;;;;5043392;28;20844;-86
2023/03/06 03:41:56;;;;;;;0.10;0.10;;;4.60;99.90;;;;;;5045255;28;20691;-85
2023/03/06 03:44:22;;;;;;;0.10;0.10;;;4.60;99.90;;;;;;5042144;28;20204;-86
2023/03/06 03:46:47;;;;;;;0.07;0.07;;;4.60;99.90;;;;;;5042319;28;20197;-86
2023/03/06 03:49:13;;;;;;;0.10;0.10;;;4.60;99.90;;;;;;5042256;28;20174;-86
2023/03/06 03:51:39;;;;;;;0.10;0.10;;;4.60;99.90;;;;;;5043394;28;20196;-85
2023/03/06 03:54:05;;;;;;;0.10;0.10;;;4.50;99.90;;;;;;5042865;28;20663;-86
2023/03/06 03:56:31;;;;;;;0.10;0.10;;;4.50;99.90;;;;;;5043610;28;20214;-86
2023/03/06 03:58:57;;;;;;;0.00;0.00;;;4.50;99.90;;;;;;5044726;28;20277;-86
2023/03/06 04:01:23;;;;;;;0.10;0.10;;;4.50;99.90;;;;;;5043856;28;20288;-86
2023/03/06 04:03:49;;;;;;;0.10;0.10;;;4.50;99.90;;;;;;5042637;28;20308;-86
2023/03/06 04:06:14;;;;;;;0.10;0.10;;;4.50;99.90;;;;;;5040916;28;20624;-86
2023/03/06 04:08:40;;;;;;;0.07;0.07;;;4.50;99.90;;;;;;5042995;28;21043;-85
2023/03/06 04:11:05;;;;;;;0.10;0.10;;;4.50;99.90;;;;;;5042201;28;20675;-86
2023/03/06 04:13:31;;;;;;;0.00;0.00;;;4.50;99.90;;;;;;5041076;28;20211;-86
2023/03/06 04:15:58;;;;;;;0.10;0.10;;;4.60;99.90;;;;;;5043562;28;20202;-86
2023/03/06 04:18:24;;;;;;;0.00;0.00;;;4.50;99.90;;;;;;5039327;28;20182;-86
2023/03/06 04:20:49;;;;;;;0.10;0.10;;;4.50;99.90;;;;;;5056873;28;20241;-86
2023/03/06 04:23:16;;;;;;;0.10;0.10;;;4.60;99.90;;;;;;5067197;28;20189;-87
2023/03/06 04:25:42;;;;;;;0.10;0.10;;;4.60;99.90;;;;;;5058445;28;20300;-86
2023/03/06 04:28:07;;;;;;;0.10;0.10;;;4.50;99.90;;;;;;5044629;28;20291;-86
2023/03/06 04:30:34;;;;;;;0.10;0.10;;;4.60;99.90;;;;;;5039929;28;20212;-84
2023/03/06 04:32:59;;;;;;;0.10;0.10;;;4.50;99.90;;;;;;5057989;28;20242;-86
2023/03/06 04:35:25;;;;;;;0.00;0.00;;;4.50;99.90;;;;;;5044658;28;20194;-85
2023/03/06 04:37:51;;;;;;;0.10;0.10;;;4.60;99.90;;;;;;5043243;28;20191;-85
2023/03/06 04:40:21;;;;;;;0.10;0.10;;;4.60;99.90;;;;;;5041474;28;20688;-86
2023/03/06 04:42:47;;;;;;;0.10;0.10;;;4.50;99.90;;;;;;5044639;28;20202;-86
2023/03/06 04:45:13;;;;;;;0.10;0.10;;;4.60;99.90;;;;;;5043101;28;20249;-86
2023/03/06 04:47:39;;;;;;;0.10;0.10;;;4.50;99.90;;;;;;5042581;28;20297;-86
2023/03/06 04:50:05;;;;;;;0.10;0.10;;;4.50;99.90;;;;;;5044280;28;20269;-86
2023/03/06 04:52:31;;;;;;;0.10;0.10;;;4.40;99.90;;;;;;5042618;28;20195;-86
2023/03/06 04:54:56;;;;;;;0.10;0.10;;;4.40;99.90;;;;;;5042024;28;20190;-86
2023/03/06 04:57:22;;;;;;;0.10;0.10;;;4.40;99.90;;;;;;5045838;28;20226;-85
2023/03/06 04:59:49;;;;;;;0.10;0.10;;;4.40;99.90;;;;;;5045131;28;20194;-86
2023/03/06 05:02:15;;;;;;;0.10;0.10;;;4.50;99.90;;;;;;5045652;28;20269;-87
2023/03/06 05:04:41;;;;;;;0.10;0.10;;;4.40;99.90;;;;;;5047034;28;20628;-86
2023/03/06 05:07:06;;;;;;;0.10;0.10;;;4.50;99.90;;;;;;5047780;28;20286;-85
2023/03/06 05:09:33;;;;;;;0.10;0.10;;;4.50;99.90;;;;;;5044565;28;20202;-86
2023/03/06 05:11:58;;;;;;;0.10;0.10;;;4.50;99.90;;;;;;5062235;28;20222;-86
2023/03/06 05:14:24;;;;;;;0.07;0.07;;;4.50;99.90;;;;;;5044108;28;20275;-86
2023/03/06 05:16:49;;;;;;;0.10;0.10;;;4.50;99.90;;;;;;5043996;28;20202;-86
2023/03/06 05:19:15;;;;;;;0.10;0.10;;;4.50;99.90;;;;;;5046413;28;20193;-86
2023/03/06 05:21:40;;;;;;;0.10;0.10;;;4.50;99.90;;;;;;5042531;28;20212;-85
2023/03/06 05:24:06;;;;;;;0.10;0.10;;;4.40;99.90;;;;;;5043224;28;20585;-85
2023/03/06 05:26:33;;;;;;;0.10;0.10;;;4.30;99.90;;;;;;5047269;28;20244;-86
2023/03/06 05:28:59;;;;;;;0.10;0.10;;;4.30;99.90;;;;;;5045296;28;20233;-86
2023/03/06 05:31:24;;;;;;;0.10;0.10;;;4.40;99.90;;;;;;5045284;28;20677;-86
2023/03/06 05:33:50;;;;;;;0.10;0.10;;;4.50;99.90;;;;;;5046317;28;20214;-85
2023/03/06 05:36:15;;;;;;;0.10;0.10;;;4.50;99.90;;;;;;5042778;28;20238;-85
2023/03/06 05:38:41;;;;;;;0.00;0.00;;;4.40;99.90;;;;;;5046584;28;20197;-85
2023/03/06 05:41:11;;;;;;;0.10;0.10;;;4.20;99.90;;;;;;5045234;28;20199;-84
2023/03/06 05:43:37;;;;;;;0.10;0.10;;;4.30;99.90;;;;;;5045191;28;20269;-85
2023/03/06 05:46:04;;;;;;;0.10;0.10;;;4.30;99.90;;;;;;5045596;28;20349;-84
2023/03/06 05:48:30;;;;;;;0.10;0.10;;;4.40;99.90;;;;;;5063336;28;20529;-85
2023/03/06 05:50:57;;;;;;;0.10;0.10;;;4.50;99.90;;;;;;5048694;28;20279;-85
2023/03/06 05:53:23;;;;;;;0.10;0.10;;;4.60;99.90;;;;;;5050089;28;20197;-85
2023/03/06 05:56:15;;;;;;;0.10;0.10;;;4.60;99.90;;;;;;5052389;28;20217;-85
2023/03/06 05:58:40;;;;;;;0.10;0.10;;;4.70;99.90;;;;;;5046513;28;20195;-85
2023/03/06 06:01:11;;;;;;;0.00;0.00;;;4.70;99.90;;;;;;5050125;28;20268;-85
2023/03/06 06:03:37;;;;;;;0.10;0.10;;;4.70;99.90;;;;;;5050258;28;20607;-84
2023/03/06 06:06:08;;;;;;;0.10;0.10;;;4.70;99.90;;;;;;5048260;28;20202;-84
2023/03/06 06:08:34;;;;;;;0.10;0.10;;;4.70;99.90;;;;;;5045321;28;20194;-85
2023/03/06 06:11:00;;;;;;;0.10;0.10;;;4.70;99.90;;;;;;5044676;28;20184;-83
2023/03/06 06:13:25;;;;;;;0.10;0.10;;;4.70;99.90;;;;;;5050915;28;20274;-83
2023/03/06 06:15:51;;;;;;;0.10;0.10;;;4.70;99.90;;;;;;5054002;28;20210;-83
2023/03/06 06:18:17;;;;;;;0.10;0.10;;;4.70;99.90;;;;;;5050533;28;20184;-83
2023/03/06 06:20:42;;;;;;;0.10;0.10;;;4.80;99.90;;;;;;5039874;28;20194;-83
2023/03/06 06:23:10;;;;;;;0.10;0.10;;;4.70;99.90;;;;;;5044520;28;20223;-83
2023/03/06 06:25:36;;;;;;;0.10;0.10;;;4.70;99.90;;;;;;5044741;28;20727;-82
2023/03/06 06:28:02;;;;;;;0.10;0.10;;;4.70;99.90;;;;;;5061803;28;20187;-82
2023/03/06 06:30:27;;;;;;;0.10;0.10;;;4.80;99.90;;;;;;5047527;28;20183;-83
2023/03/06 06:32:53;;;;;;;0.10;0.10;;;4.80;99.90;;;;;;5045041;28;20782;-82
2023/03/06 06:35:19;;;;;;;0.10;0.10;;;4.80;99.90;;;;;;5046329;28;20720;-83
2023/03/06 06:37:44;;;;;;;0.10;0.10;;;4.80;99.90;;;;;;5045796;28;20194;-83
2023/03/06 06:40:10;;;;;;;0.10;0.10;;;4.80;99.90;;;;;;5049160;28;20209;-83
2023/03/06 06:42:36;;;;;;;0.10;0.10;;;4.80;99.90;;;;;;5041932;28;20242;-84
2023/03/06 06:45:05;;;;;;;0.10;0.10;;;4.80;99.90;;;;;;5039593;28;20283;-83
2023/03/06 06:47:32;;;;;;;0.10;0.10;;;4.80;99.90;;;;;;5044553;28;20216;-83
2023/03/06 06:49:58;;;;;;;0.10;0.10;;;4.80;99.90;;;;;;5047990;28;20185;-83
2023/03/06 06:52:25;;;;;;;0.10;0.10;;;4.90;99.90;;;;;;5049409;28;20278;-83
2023/03/06 06:54:51;;;;;;;0.10;0.10;;;4.90;99.90;;;;;;5066702;28;20617;-83
2023/03/06 06:57:17;;;;;;;0.10;0.10;;;4.90;99.90;;;;;;5047142;28;20209;-83
2023/03/06 06:59:43;;;;;;;0.10;0.10;;;5.00;99.90;;;;;;5049091;28;20206;-83
2023/03/06 07:02:13;;;;;;;0.10;0.10;;;5.00;99.90;;;;;;5048222;28;20236;-83
2023/03/06 07:04:40;;;;;;;0.10;0.10;;;5.10;99.90;;;;;;5046599;28;20237;-83
2023/03/06 07:07:05;;;;;;;0.10;0.10;;;5.20;99.90;;;;;;5037671;28;20208;-83
2023/03/06 07:09:32;;;;;;;0.10;0.10;;;5.10;99.90;;;;;;5038531;28;20722;-83
2023/03/06 07:11:57;;;;;;;0.03;0.03;;;5.30;99.90;;;;;;5043047;28;20202;-83
2023/03/06 07:14:23;;;;;;;0.10;0.10;;;5.40;99.90;;;;;;5043360;28;20202;-84
2023/03/06 07:16:49;;;;;;;0.10;0.10;;;5.40;99.90;;;;;;5041900;28;20245;-83
2023/03/06 07:19:14;;;;;;;0.10;0.10;;;5.40;99.90;;;;;;5041725;28;20221;-83
2023/03/06 07:21:40;;;;;;;0.00;0.00;;;5.40;99.90;;;;;;5042614;28;20268;-83
2023/03/06 07:24:06;;;;;;;0.10;0.10;;;5.30;99.90;;;;;;5047119;28;20196;-83
2023/03/06 07:26:31;;;;;;;0.10;0.10;;;5.30;99.90;;;;;;5043841;28;20205;-83
2023/03/06 07:28:57;;;;;;;0.10;0.10;;;5.20;99.90;;;;;;5043508;28;20221;-84
2023/03/06 07:31:25;;;;;;;0.10;0.10;;;5.20;99.90;;;;;;5042541;28;20263;-82
2023/03/06 07:33:52;;;;;;;0.10;0.10;;;5.20;99.90;;;;;;5045062;28;20608;-83
2023/03/06 07:36:18;;;;;;;0.10;0.10;;;5.10;99.90;;;;;;5041348;28;20206;-83
2023/03/06 07:38:44;;;;;;;0.00;0.00;;;5.10;99.90;;;;;;5040971;28;20195;-83
2023/03/06 07:41:12;;;;;;;0.10;0.10;;;5.10;99.90;;;;;;5041806;28;20198;-83
2023/03/06 07:43:44;;;;;;;0.10;0.10;;;5.10;99.90;;;;;;5045900;28;20203;-83
2023/03/06 07:46:11;;;;;;;0.10;0.10;;;5.30;99.90;;;;;;5043061;28;20249;-83
2023/03/06 07:48:37;;;;;;;0.10;0.10;;;5.40;99.90;;;;;;5044657;28;20614;-84
2023/03/06 07:51:05;;;;;;;0.10;0.10;;;5.50;99.90;;;;;;5044042;28;20813;-83
2023/03/06 07:53:32;;;;;;;0.10;0.10;;;5.50;99.90;;;;;;5046638;28;20186;-83
2023/03/06 07:55:58;;;;;;;0.10;0.10;;;5.60;99.90;;;;;;5043259;28;20234;-83
2023/03/06 07:58:24;;;;;;;0.10;0.10;;;5.60;99.90;;;;;;5061296;28;20190;-84
2023/03/06 08:00:50;;;;;;;0.10;0.10;;;5.60;99.90;;;;;;5042730;28;20255;-83
2023/03/06 08:03:16;;;;;;;0.00;0.00;;;5.60;99.90;;;;;;5054960;28;20241;-84
2023/03/06 08:05:43;;;;;;;0.10;0.10;;;5.70;99.90;;;;;;5053357;28;20203;-83
2023/03/06 08:08:09;;;;;;;0.10;0.10;;;5.80;99.90;;;;;;5049528;28;20244;-84
2023/03/06 08:10:34;;;;;;;0.10;0.10;;;5.90;99.90;;;;;;5048382;28;20188;-85
2023/03/06 08:13:00;;;;;;;0.10;0.10;;;6.00;99.90;;;;;;5046301;28;20532;-83
2023/03/06 08:15:25;;;;;;;0.10;0.10;;;6.00;99.90;;;;;;5047862;28;20820;-85
2023/03/06 08:17:51;;;;;;;0.10;0.10;;;5.90;99.90;;;;;;5047353;28;20671;-84
2023/03/06 08:20:17;;;;;;;0.10;0.10;;;5.90;99.90;;;;;;5047035;28;20221;-84
2023/03/06 08:22:44;;;;;;;0.10;0.10;;;6.00;99.90;;;;;;5049116;28;20234;-85
2023/03/06 08:25:12;;;;;;;0.10;0.10;;;6.00;99.90;;;;;;5054890;28;20184;-84
2023/03/06 08:27:37;;;;;;;0.10;0.10;;;6.10;99.90;;;;;;5051055;28;20206;-84
2023/03/06 08:30:04;;;;;;;0.10;0.10;;;6.10;99.90;;;;;;5052352;28;20719;-84
2023/03/06 08:32:30;;;;;;;0.10;0.10;;;6.30;99.90;;;;;;5066981;28;20220;-84
2023/03/06 08:34:55;;;;;;;0.10;0.10;;;6.40;99.90;;;;;;5047693;28;20224;-83
2023/03/06 08:37:21;;;;;;;0.10;0.10;;;6.50;99.90;;;;;;5054649;28;20244;-83
2023/03/06 08:39:46;;;;;;;0.10;0.10;;;6.40;99.90;;;;;;5054759;28;20187;-83
2023/03/06 08:42:12;;;;;;;0.10;0.10;;;6.30;99.90;;;;;;5054660;28;20199;-83
2023/03/06 08:44:38;;;;;;;0.00;0.00;;;6.30;99.90;;;;;;5053329;28;20178;-83
2023/03/06 08:47:03;;;;;;;0.10;0.10;;;6.20;99.90;;;;;;5052706;28;20226;-82
2023/03/06 08:49:29;;;;;;;0.10;0.10;;;6.10;99.90;;;;;;5055055;28;20203;-83
2023/03/06 08:51:55;;;;;;;0.10;0.10;;;6.20;99.90;;;;;;5054751;28;20187;-82
2023/03/06 08:54:20;;;;;;;0.10;0.10;;;6.20;99.90;;;;;;5053913;28;20187;-83
2023/03/06 08:56:46;;;;;;;0.10;0.10;;;6.10;99.90;;;;;;5050711;28;20307;-83
2023/03/06 08:59:12;;;;;;;0.10;0.10;;;6.20;99.90;;;;;;5052741;28;20193;-83
2023/03/06 09:01:38;;;;;;;0.10;0.10;;;6.20;99.90;;;;;;5045219;28;20257;-84
2023/03/06 09:04:10;;;;;;;0.10;0.10;;;6.30;99.90;;;;;;5052522;28;20189;-84
2023/03/06 09:06:39;;;;;;;0.10;0.10;;;6.40;99.90;;;;;;5050569;28;20715;-83
2023/03/06 09:09:08;;;;;;;0.10;0.10;;;6.50;99.90;;;;;;5043818;28;20192;-83
2023/03/06 09:11:33;;;;;;;0.10;0.10;;;6.60;99.90;;;;;;5069074;28;20221;-84
2023/03/06 09:13:59;;;;;;;0.10;0.10;;;6.60;99.90;;;;;;5054273;28;20197;-84
2023/03/06 09:16:25;;;;;;;0.10;0.10;;;6.60;99.90;;;;;;5054720;28;20213;-84
2023/03/06 09:18:51;;;;;;;0.10;0.10;;;6.60;99.90;;;;;;5055121;28;20191;-84
2023/03/06 09:21:18;;;;;;;0.10;0.10;;;6.60;99.90;;;;;;5052512;28;20192;-83
2023/03/06 09:23:44;;;;;;;0.10;0.10;;;6.60;99.90;;;;;;5052556;28;20697;-84
2023/03/06 09:26:10;;;;;;;0.10;0.10;;;6.60;99.90;;;;;;5052792;28;20195;-84
2023/03/06 09:28:37;;;;;;;0.10;0.10;;;6.60;99.90;;;;;;5052693;28;20184;-84
2023/03/06 09:31:15;;;;;;;0.10;0.10;;;6.60;99.90;;;;;;5053530;28;20346;-84
2023/03/06 09:33:41;;;;;;;0.10;0.10;;;6.60;99.90;;;;;;5050579;28;20274;-82
2023/03/06 09:36:09;;;;;;;0.10;0.10;;;6.60;99.90;;;;;;5051920;28;20208;-82
2023/03/06 09:38:34;;;;;;;0.10;0.10;;;6.60;99.90;;;;;;5053293;28;20298;-82
2023/03/06 09:41:06;;;;;;;0.10;0.10;;;6.70;99.90;;;;;;5051177;28;20361;-82
2023/03/06 09:43:47;;;;;;;0.10;0.10;;;6.70;99.90;;;;;;5052299;28;20683;-82
2023/03/06 09:46:28;;;;;;;0.10;0.10;;;6.80;99.90;;;;;;5051416;28;20208;-82
2023/03/06 09:49:09;;;;;;;0.10;0.10;;;6.40;99.90;;;;;;5050749;28;20277;-82
2023/03/06 09:51:47;;;;;;;0.10;0.10;;;6.60;99.90;;;;;;5052030;28;20181;-82
2023/03/06 09:54:15;;;;;;;0.10;0.10;;;6.70;99.90;;;;;;5051404;28;20222;-82
2023/03/06 09:56:47;;;;;;;0.10;0.10;;;6.60;99.90;;;;;;5052075;28;20205;-82
2023/03/06 09:59:20;;;;;;;0.10;0.10;;;6.60;99.90;;;;;;5051098;28;20188;-82
2023/03/06 10:02:02;;;;;;;0.00;0.00;;;6.50;99.90;;;;;;5048485;28;20247;-82
2023/03/06 10:04:39;;;;;;;0.10;0.10;;;6.50;99.90;;;;;;5048458;28;20180;-83
2023/03/06 10:07:20;;;;;;;0.00;0.00;;;6.60;99.90;;;;;;5053095;28;20211;-83
2023/03/06 10:10:00;;;;;;;0.10;0.10;;;6.60;99.90;;;;;;5051954;28;20209;-82
2023/03/06 10:12:34;;;;;;;0.10;0.10;;;6.60;99.90;;;;;;5050325;28;21203;-82
2023/03/06 10:15:22;;;;;;;0.00;0.00;;;6.70;99.90;;;;;;5049566;28;20271;-82
2023/03/06 10:17:48;;;;;;;0.10;0.10;;;6.60;99.90;;;;;;5040720;28;20295;-82
2023/03/06 10:20:16;;;;;;;0.10;0.10;;;6.80;99.90;;;;;;5050973;28;20220;-83
2023/03/06 10:22:56;;;;;;;0.10;0.10;;;6.90;99.90;;;;;;5050982;28;20210;-83
2023/03/06 10:25:30;;;;;;;0.10;0.10;;;7.00;99.90;;;;;;5051223;28;20215;-82
2023/03/06 10:28:35;;;;;;;0.10;0.10;;;7.20;99.90;;;;;;5046078;28;20187;-82
2023/03/06 10:31:23;;;;;;;0.10;0.10;;;7.40;99.90;;;;;;5047972;28;20188;-82
2023/03/06 10:33:49;;;;;;;0.10;0.10;;;7.60;99.90;;;;;;5041981;28;20666;-82
2023/03/06 10:36:17;;;;;;;0.10;0.10;;;7.70;99.90;;;;;;5050261;28;20255;-82
2023/03/06 10:38:44;;;;;;;0.10;0.10;;;7.80;99.90;;;;;;5047776;28;20285;-83
2023/03/06 10:41:09;;;;;;;0.10;0.10;;;7.90;99.90;;;;;;5047252;28;20186;-82
2023/03/06 10:43:56;;;;;;;0.10;0.10;;;8.10;99.90;;;;;;5050849;28;20302;-82
2023/03/06 10:46:33;;;;;;;0.10;0.10;;;8.00;99.90;;;;;;5043154;28;20208;-83
2023/03/06 10:49:01;;;;;;;0.10;0.10;;;7.90;99.90;;;;;;5047198;28;20196;-81
2023/03/06 10:51:28;;;;;;;0.10;0.10;;;8.00;99.90;;;;;;5055790;28;20187;-83
2023/03/06 10:54:22;;;;;;;0.10;0.10;;;8.00;99.90;;;;;;5052323;28;20272;-83
2023/03/06 10:56:47;;;;;;;0.10;0.10;;;8.00;99.90;;;;;;5047637;28;20209;-82
2023/03/06 10:59:18;;;;;;;0.10;0.10;;;8.30;99.90;;;;;;5048473;28;20193;-81
2023/03/06 11:01:53;;;;;;;0.10;0.10;;;8.50;99.90;;;;;;5041172;28;20282;-82
2023/03/06 11:04:33;;;;;;;0.10;0.10;;;8.90;99.90;;;;;;5048660;28;20181;-82
2023/03/06 11:07:07;;;;;;;0.10;0.10;;;9.20;99.90;;;;;;5046020;28;20240;-82
2023/03/06 11:09:34;;;;;;;0.10;0.10;;;9.60;99.90;;;;;;5045632;28;20182;-82
2023/03/06 11:12:26;;;;;;;0.10;0.10;;;9.60;99.90;;;;;;5048795;28;20196;-82
2023/03/06 11:15:13;;;;;;;0.10;0.10;;;9.40;99.90;;;;;;5044967;28;20280;-83
2023/03/06 11:18:03;;;;;;;0.10;0.10;;;9.30;99.90;;;;;;5044679;28;20205;-81
2023/03/06 11:20:32;;;;;;;0.10;0.10;;;9.30;99.90;;;;;;5042967;28;20244;-81
2023/03/06 11:23:15;;;;;;;0.10;0.10;;;9.20;99.90;;;;;;5045770;28;20360;-83
2023/03/06 11:26:19;;;;;;;0.10;0.10;;;9.40;99.90;;;;;;5045877;28;20212;-82
2023/03/06 11:29:01;;;;;;;0.10;0.10;;;9.30;99.90;;;;;;5050415;28;20181;-82
2023/03/06 11:31:31;;;;;;;0.10;0.10;;;9.30;99.90;;;;;;5054821;28;20182;-82
2023/03/06 11:34:27;;;;;;;0.10;0.10;;;9.30;99.90;;;;;;5047108;28;20185;-82
2023/03/06 11:36:59;;;;;;;0.10;0.10;;;9.00;99.90;;;;;;5037782;28;20201;-82
2023/03/06 11:39:40;;;;;;;0.10;0.10;;;9.00;99.90;;;;;;5043019;28;20191;-83
2023/03/06 11:42:28;;;;;;;0.10;0.10;;;8.90;99.90;;;;;;5049527;28;20213;-83
2023/03/06 11:45:18;;;;;;;0.10;0.10;;;8.80;99.90;;;;;;5059644;28;20212;-82
2023/03/06 11:48:14;;;;;;;0.10;0.10;;;8.60;99.90;;;;;;5074789;28;20205;-82
2023/03/06 11:50:41;;;;;;;0.10;0.10;;;8.50;99.90;;;;;;5046488;28;20189;-82
2023/03/06 11:53:30;;;;;;;0.10;0.10;;;8.30;99.90;;;;;;5039942;28;20194;-83
2023/03/06 11:56:08;;;;;;;0.10;0.10;;;8.10;99.90;;;;;;5041696;28;20287;-84
2023/03/06 11:59:09;;;;;;;0.10;0.10;;;8.00;99.90;;;;;;5041918;28;20185;-83
2023/03/06 12:01:41;;;;;;;0.10;0.10;;;8.00;99.90;;;;;;5041839;28;20212;-83
2023/03/06 12:04:28;;;;;;;0.10;0.10;;;8.20;99.90;;;;;;5041387;28;20285;-82
2023/03/06 12:07:08;;;;;;;0.10;0.10;;;8.30;99.90;;;;;;5046105;28;21206;-82
2023/03/06 12:09:52;;;;;;;0.10;0.10;;;8.40;99.90;;;;;;5044164;28;20547;-83
2023/03/06 12:12:29;;;;;;;0.10;0.10;;;8.40;99.90;;;;;;5043529;28;20177;-83
2023/03/06 12:15:40;;;;;;;0.10;0.10;;;8.80;99.90;;;;;;5036435;28;20217;-83
2023/03/06 12:18:24;;;;;;;0.10;0.10;;;8.80;99.90;;;;;;5043008;28;20281;-83
2023/03/06 12:21:31;;;;;;;0.10;0.10;;;8.70;99.90;;;;;;5041374;28;20197;-83
2023/03/06 12:24:26;;;;;;;0.10;0.10;;;8.70;99.90;;;;;;5008732;28;20667;-83
2023/03/06 12:27:23;;;;;;;0.10;0.10;;;9.00;99.90;;;;;;4973594;28;20224;-82
2023/03/06 12:30:32;;;;;;;0.10;0.10;;;8.90;99.90;;;;;;5043359;28;20181;-83
2023/03/06 12:33:16;;;;;;;0.10;0.10;;;9.60;99.90;;;;;;5022639;28;21058;-83
2023/03/06 12:35:52;;;;;;;0.10;0.10;;;10.20;99.90;;;;;;5041780;28;20212;-82
2023/03/06 12:38:45;;;;;;;0.10;0.10;;;10.50;99.90;;;;;;5039607;28;20928;-83
2023/03/06 12:41:41;;;;;;;0.10;0.10;;;10.70;99.90;;;;;;5046373;28;20272;-83
2023/03/06 12:44:24;;;;;;;0.10;0.10;;;11.20;99.90;;;;;;5037555;28;20201;-83
2023/03/06 12:47:02;;;;;;;0.10;0.10;;;11.40;99.90;;;;;;5043504;28;20259;-83
2023/03/06 12:49:29;;;;;;;0.10;0.10;;;11.40;99.90;;;;;;5043771;28;20178;-83
2023/03/06 12:51:57;;;;;;;0.00;0.00;;;11.40;99.90;;;;;;5036685;28;20312;-83
2023/03/06 12:54:27;;;;;;;0.10;0.10;;;11.20;99.90;;;;;;5042191;28;20192;-83
2023/03/06 12:56:55;;;;;;;0.10;0.10;;;10.60;99.90;;;;;;5044578;28;20297;-83
2023/03/06 12:59:43;;;;;;;0.10;0.10;;;10.10;99.90;;;;;;5042856;28;20185;-83
2023/03/06 13:02:17;;;;;;;0.10;0.10;;;9.80;99.90;;;;;;5041558;28;20217;-83
2023/03/06 13:05:05;;;;;;;0.10;0.10;;;9.50;99.90;;;;;;5040467;28;20690;-83
2023/03/06 13:07:54;;;;;;;0.10;0.10;;;9.40;99.90;;;;;;5040318;28;20212;-82
2023/03/06 13:10:29;;;;;;;0.00;0.00;;;9.30;99.90;;;;;;5041597;28;21853;-83
2023/03/06 13:12:57;;;;;;;0.10;0.10;;;9.30;99.90;;;;;;5043892;28;20192;-83